Time;durP1;ratioP1;P1;durP2;ratioP2;P2;SDS_P1;SDS_P2;PMS_P1;PMS_P2;Temp;Humidity;BMP_temperature;BMP_pressure;BME280_temperature;BME280_humidity;BME280_pressure;Samples;Min_cycle;Max_cycle;Signal;HPM_P1;HPM_P2
2021/06/27 00:01:16;;;;;;;41.95;31.10;;;;;;;17.99;76.53;101603.50;5075141;28;20032;-64
2021/06/27 00:03:42;;;;;;;40.10;31.05;;;;;;;17.99;76.32;101594.63;5074719;28;20376;-64
2021/06/27 00:06:10;;;;;;;40.28;30.80;;;;;;;17.97;76.70;101593.75;5074643;28;20031;-64
2021/06/27 00:08:36;;;;;;;40.13;31.00;;;;;;;17.94;76.79;101600.03;5074779;28;20512;-64
2021/06/27 00:11:03;;;;;;;42.15;31.77;;;;;;;17.88;76.22;101594.72;5074433;28;20070;-64
2021/06/27 00:13:29;;;;;;;41.80;32.28;;;;;;;17.86;76.30;101591.19;5074277;28;20604;-64
2021/06/27 00:15:56;;;;;;;42.22;31.42;;;;;;;17.81;76.24;101593.94;5074618;28;20095;-65
2021/06/27 00:18:24;;;;;;;42.35;32.05;;;;;;;17.77;75.94;101592.22;5074741;28;20021;-65
2021/06/27 00:20:53;;;;;;;42.88;31.60;;;;;;;17.73;76.06;101594.03;5074422;28;20025;-62
2021/06/27 00:23:20;;;;;;;43.10;31.98;;;;;;;17.69;76.28;101589.66;5071001;28;20027;-64
2021/06/27 00:25:46;;;;;;;42.38;32.45;;;;;;;17.67;75.98;101593.25;5070134;28;20483;-65
2021/06/27 00:28:14;;;;;;;44.63;33.28;;;;;;;17.68;76.06;101593.22;5074265;28;20029;-65
2021/06/27 00:30:43;;;;;;;43.30;32.28;;;;;;;17.67;75.93;101595.91;5074263;28;20023;-64
2021/06/27 00:33:09;;;;;;;43.38;33.78;;;;;;;17.66;76.12;101584.31;5074158;28;20025;-65
2021/06/27 00:35:34;;;;;;;42.97;32.40;;;;;;;17.63;76.19;101589.72;5073826;28;20052;-65
2021/06/27 00:38:01;;;;;;;44.38;33.20;;;;;;;17.64;76.50;101585.25;5074125;28;20107;-65
2021/06/27 00:40:29;;;;;;;44.20;33.28;;;;;;;17.59;77.01;101586.22;5073897;28;20020;-63
2021/06/27 00:42:55;;;;;;;43.72;33.40;;;;;;;17.56;77.07;101588.03;5073966;28;20020;-64
2021/06/27 00:45:23;;;;;;;43.70;33.72;;;;;;;17.55;76.93;101586.28;5073942;28;20098;-62
2021/06/27 00:47:50;;;;;;;44.50;34.08;;;;;;;17.55;77.14;101591.63;5077517;28;20027;-61
2021/06/27 00:50:22;;;;;;;47.05;34.95;;;;;;;17.56;76.53;101583.56;5073331;28;20563;-62
2021/06/27 00:52:48;;;;;;;47.10;35.75;;;;;;;17.55;76.87;101586.28;5069279;28;20034;-63
2021/06/27 00:55:14;;;;;;;45.42;35.53;;;;;;;17.56;77.27;101577.31;5073320;28;20028;-62
2021/06/27 00:57:41;;;;;;;48.15;36.63;;;;;;;17.50;77.53;101580.97;5073599;28;20423;-62
2021/06/27 01:00:10;;;;;;;47.55;37.03;;;;;;;17.46;78.08;101573.91;5073578;28;20036;-62
2021/06/27 01:02:36;;;;;;;50.08;37.35;;;;;;;17.44;78.10;101573.03;5073591;28;20028;-62
2021/06/27 01:05:06;;;;;;;48.42;37.83;;;;;;;17.40;78.83;101576.63;5073203;28;20035;-62
2021/06/27 01:07:32;;;;;;;51.30;38.88;;;;;;;17.36;79.28;101572.25;5073198;28;20082;-62
2021/06/27 01:09:57;;;;;;;50.03;38.33;;;;;;;17.34;79.51;101574.03;5071459;28;20036;-62
2021/06/27 01:12:23;;;;;;;49.45;38.40;;;;;;;17.33;79.56;101577.63;5073500;28;20028;-65
2021/06/27 01:14:48;;;;;;;48.47;37.80;;;;;;;17.32;79.79;101579.41;5073511;28;20040;-63
2021/06/27 01:17:14;;;;;;;50.28;38.97;;;;;;;17.31;79.55;101580.31;5073096;28;20024;-65
2021/06/27 01:19:40;;;;;;;50.17;38.75;;;;;;;17.31;79.81;101576.75;5073067;28;20017;-62
2021/06/27 01:22:05;;;;;;;51.00;38.85;;;;;;;17.26;80.33;101587.50;5073399;28;20036;-64
2021/06/27 01:24:30;;;;;;;49.47;38.40;;;;;;;17.23;80.48;101579.53;5073044;28;20459;-68
2021/06/27 01:26:56;;;;;;;49.08;38.83;;;;;;;17.20;80.86;101574.22;5072751;28;20100;-68
2021/06/27 01:29:21;;;;;;;51.00;38.95;;;;;;;17.15;81.08;101562.69;5072968;28;20025;-63
2021/06/27 01:31:47;;;;;;;50.88;39.65;;;;;;;17.10;81.49;101564.56;5072875;28;20477;-64
2021/06/27 01:34:13;;;;;;;50.75;39.03;;;;;;;17.05;81.81;101568.16;5073125;28;20036;-64
2021/06/27 01:36:39;;;;;;;51.55;39.83;;;;;;;16.99;82.10;101570.00;5073336;28;20086;-68
2021/06/27 01:39:04;;;;;;;52.17;39.85;;;;;;;16.93;82.61;101565.59;5072652;28;20103;-66
2021/06/27 01:41:29;;;;;;;52.58;40.78;;;;;;;16.91;82.88;101564.75;5072664;28;20137;-68
2021/06/27 01:43:55;;;;;;;51.38;39.08;;;;;;;16.88;82.94;101562.13;5072798;28;20040;-68
2021/06/27 01:46:20;;;;;;;50.88;40.20;;;;;;;16.86;83.41;101566.53;5072636;28;20050;-68
2021/06/27 01:48:45;;;;;;;52.22;41.17;;;;;;;16.81;83.70;101563.03;5072575;28;20031;-68
2021/06/27 01:51:11;;;;;;;53.90;41.50;;;;;;;16.78;83.96;101563.06;5072622;28;20024;-68
2021/06/27 01:53:39;;;;;;;53.03;40.83;;;;;;;16.73;84.35;101574.69;5072521;28;20027;-67
2021/06/27 01:56:08;;;;;;;52.15;41.75;;;;;;;16.69;85.29;101574.72;5072997;28;20085;-69
2021/06/27 01:58:38;;;;;;;53.33;40.58;;;;;;;16.69;85.29;101575.59;5072764;28;20032;-68
2021/06/27 02:01:08;;;;;;;54.55;41.13;;;;;;;16.68;85.71;101572.94;5072448;28;20095;-68
2021/06/27 02:03:33;;;;;;;52.08;40.40;;;;;;;16.67;85.63;101574.75;5071870;28;20028;-68
2021/06/27 02:05:59;;;;;;;54.05;41.30;;;;;;;16.66;85.94;101578.31;5072000;28;20078;-68
2021/06/27 02:08:31;;;;;;;52.80;39.92;;;;;;;16.65;85.65;101581.00;5072429;28;20028;-67
2021/06/27 02:10:56;;;;;;;52.78;41.17;;;;;;;16.64;86.28;101576.53;5071116;28;20107;-68
2021/06/27 02:13:21;;;;;;;55.20;40.97;;;;;;;16.63;86.49;101567.66;5072667;28;20094;-67
2021/06/27 02:15:47;;;;;;;52.50;40.55;;;;;;;16.61;86.83;101580.13;5072436;28;20039;-69
2021/06/27 02:18:26;;;;;;;51.35;40.38;;;;;;;16.62;87.15;101581.03;5072481;28;20433;-68
2021/06/27 02:20:57;;;;;;;53.13;40.63;;;;;;;16.66;87.14;101580.06;5069227;28;20365;-68
2021/06/27 02:23:23;;;;;;;53.72;39.95;;;;;;;16.68;87.15;101581.84;5069177;28;20468;-68
2021/06/27 02:25:48;;;;;;;53.15;40.78;;;;;;;16.69;87.43;101578.28;5072172;28;20090;-68
2021/06/27 02:28:14;;;;;;;51.63;39.67;;;;;;;16.69;87.65;101578.28;5072179;28;20080;-68
2021/06/27 02:30:39;;;;;;;52.72;40.25;;;;;;;16.69;87.51;101570.25;5072625;28;20059;-65
2021/06/27 02:33:05;;;;;;;54.65;39.72;;;;;;;16.68;88.01;101565.81;5072371;28;20020;-64
2021/06/27 02:35:33;;;;;;;52.25;40.03;;;;;;;16.65;88.28;101556.97;5072168;28;20506;-65
2021/06/27 02:37:59;;;;;;;52.70;40.28;;;;;;;16.62;88.51;101559.66;5072289;28;20060;-65
2021/06/27 02:40:24;;;;;;;52.35;39.47;;;;;;;16.58;88.88;101564.13;5072013;28;20021;-64
2021/06/27 02:42:50;;;;;;;51.47;39.35;;;;;;;16.54;89.06;101557.03;5072347;28;20044;-63
2021/06/27 02:45:15;;;;;;;52.25;39.80;;;;;;;16.45;90.13;101551.81;5071902;28;20033;-65
2021/06/27 02:47:42;;;;;;;54.65;40.92;;;;;;;16.43;90.13;101548.28;5071939;28;20035;-65
2021/06/27 02:50:11;;;;;;;52.72;40.97;;;;;;;16.38;90.50;101543.88;5071931;28;20083;-65
2021/06/27 02:52:36;;;;;;;52.55;40.63;;;;;;;16.36;90.92;101548.31;5071934;28;20077;-65
2021/06/27 02:55:03;;;;;;;52.25;39.72;;;;;;;16.29;91.46;101541.25;5071812;28;20033;-65
2021/06/27 02:57:28;;;;;;;54.35;41.55;;;;;;;16.21;92.05;101543.13;5070240;28;20039;-63
2021/06/27 02:59:54;;;;;;;52.55;41.05;;;;;;;16.16;92.85;101545.84;5071981;28;20028;-64
2021/06/27 03:02:19;;;;;;;53.85;41.40;;;;;;;16.13;93.29;101540.50;5071885;28;20032;-64
2021/06/27 03:04:44;;;;;;;53.83;41.25;;;;;;;16.10;93.42;101539.66;5072095;28;20415;-64
2021/06/27 03:07:10;;;;;;;52.35;39.85;;;;;;;16.07;93.31;101537.00;5071792;28;20487;-65
2021/06/27 03:09:35;;;;;;;53.78;41.33;;;;;;;16.05;93.45;101537.03;5071816;28;20025;-65
2021/06/27 03:12:00;;;;;;;52.65;40.25;;;;;;;16.02;93.48;101529.91;5072347;28;20048;-65
2021/06/27 03:14:26;;;;;;;54.15;40.67;;;;;;;16.00;93.91;101530.81;5071863;28;20029;-67
2021/06/27 03:16:51;;;;;;;54.88;41.00;;;;;;;15.99;94.24;101535.28;5074488;28;20476;-68
2021/06/27 03:19:16;;;;;;;53.05;40.85;;;;;;;16.00;94.20;101536.16;5075575;28;20047;-67
2021/06/27 03:21:43;;;;;;;53.75;40.03;;;;;;;16.00;94.47;101534.38;5075449;28;20048;-65
2021/06/27 03:24:08;;;;;;;55.00;41.78;;;;;;;15.99;94.51;101540.63;5075246;28;20479;-68
2021/06/27 03:26:34;;;;;;;56.83;41.60;;;;;;;15.97;95.01;101537.06;5075425;28;20118;-69
2021/06/27 03:28:59;;;;;;;57.20;42.28;;;;;;;16.00;95.11;101538.81;5075095;28;20406;-69
2021/06/27 03:31:24;;;;;;;54.08;41.05;;;;;;;16.01;94.86;101540.59;5075563;28;20120;-68
2021/06/27 03:33:50;;;;;;;53.53;40.25;;;;;;;15.98;95.05;101541.50;5075089;28;20081;-67
2021/06/27 03:36:17;;;;;;;52.35;40.05;;;;;;;16.03;94.23;101550.38;5075329;28;20478;-68
2021/06/27 03:38:57;;;;;;;53.47;40.45;;;;;;;16.01;94.68;101543.25;5075329;28;20067;-68
2021/06/27 03:41:23;;;;;;;52.90;40.25;;;;;;;16.04;94.67;101551.25;5071666;28;20040;-66
2021/06/27 03:43:49;;;;;;;51.60;38.45;;;;;;;16.06;94.27;101553.88;5075218;28;20016;-68
2021/06/27 03:46:15;;;;;;;53.15;38.60;;;;;;;16.10;94.54;101542.31;5074893;28;20111;-68
2021/06/27 03:48:41;;;;;;;53.60;39.70;;;;;;;16.16;93.99;101552.94;5074856;28;20020;-66
2021/06/27 03:51:06;;;;;;;52.58;39.15;;;;;;;16.18;94.13;101545.81;5074751;28;20025;-65
2021/06/27 03:53:32;;;;;;;50.30;38.10;;;;;;;16.20;94.00;101542.22;5074742;28;20035;-69
2021/06/27 03:55:58;;;;;;;51.95;39.03;;;;;;;16.25;93.85;101539.53;5074969;28;20116;-68
2021/06/27 03:58:27;;;;;;;50.10;38.67;;;;;;;16.25;94.54;101534.19;5074907;28;20060;-66
2021/06/27 04:00:53;;;;;;;52.30;38.60;;;;;;;16.35;93.66;101537.66;5074630;28;20027;-68
2021/06/27 04:03:19;;;;;;;54.58;39.60;;;;;;;16.33;94.45;101521.66;5070788;28;20461;-68
2021/06/27 04:05:44;;;;;;;52.40;39.28;;;;;;;16.36;93.95;101521.63;5074821;28;20107;-67
2021/06/27 04:08:10;;;;;;;52.00;39.90;;;;;;;16.39;93.56;101528.72;5074619;28;20021;-68
2021/06/27 04:10:35;;;;;;;53.20;39.50;;;;;;;16.39;93.19;101526.06;5074871;28;20371;-68
2021/06/27 04:13:00;;;;;;;55.35;39.88;;;;;;;16.43;94.19;101519.81;5074547;28;20020;-68
2021/06/27 04:15:26;;;;;;;53.85;39.33;;;;;;;16.46;94.80;101522.44;5074664;28;20035;-68
2021/06/27 04:17:51;;;;;;;51.47;39.42;;;;;;;16.50;94.30;101517.97;5074420;28;20099;-67
2021/06/27 04:20:17;;;;;;;52.22;39.22;;;;;;;16.59;93.94;101517.00;5074290;28;20040;-68
2021/06/27 04:22:42;;;;;;;52.08;38.55;;;;;;;16.63;92.53;101524.97;5074397;28;20028;-68
2021/06/27 04:25:08;;;;;;;51.10;38.97;;;;;;;16.71;91.79;101522.19;5074192;28;20519;-68
2021/06/27 04:27:34;;;;;;;51.92;38.25;;;;;;;16.73;92.53;101526.63;5072961;28;20028;-67
2021/06/27 04:30:00;;;;;;;50.30;38.25;;;;;;;16.79;91.98;101512.34;5074449;28;20032;-68
2021/06/27 04:32:25;;;;;;;50.55;37.85;;;;;;;16.84;91.76;101509.59;5072322;28;20044;-68
2021/06/27 04:34:51;;;;;;;51.00;38.10;;;;;;;16.89;91.49;101506.03;5073928;28;20032;-67
2021/06/27 04:37:17;;;;;;;52.15;37.38;;;;;;;16.92;90.65;101498.88;5074331;28;20024;-68
2021/06/27 04:39:42;;;;;;;49.75;36.78;;;;;;;16.93;90.88;101501.50;5073932;28;20051;-67
2021/06/27 04:42:07;;;;;;;51.15;37.70;;;;;;;16.98;90.21;101499.69;5073779;28;20039;-68
2021/06/27 04:44:33;;;;;;;49.38;36.53;;;;;;;16.96;89.99;101490.78;5073928;28;20024;-67
2021/06/27 04:46:58;;;;;;;50.05;36.42;;;;;;;16.97;90.48;101486.34;5073977;28;20028;-67
2021/06/27 04:49:24;;;;;;;45.88;35.30;;;;;;;17.03;90.14;101489.81;5073441;28;20438;-67
2021/06/27 04:51:49;;;;;;;50.88;37.35;;;;;;;17.08;88.41;101485.31;5073808;28;20029;-66
2021/06/27 04:54:15;;;;;;;49.22;37.25;;;;;;;17.10;89.55;101487.97;5073577;28;20111;-67
2021/06/27 04:56:40;;;;;;;49.00;36.33;;;;;;;17.12;89.61;101478.13;5073658;28;20029;-67
2021/06/27 04:59:06;;;;;;;48.72;35.97;;;;;;;17.12;89.43;101477.25;5073902;28;20070;-66
2021/06/27 05:01:31;;;;;;;52.47;38.10;;;;;;;17.14;89.47;101476.34;5073399;28;20028;-62
2021/06/27 05:03:56;;;;;;;49.92;37.42;;;;;;;17.20;89.77;101472.72;5073724;28;20376;-62
2021/06/27 05:06:22;;;;;;;49.67;36.38;;;;;;;17.20;88.80;101475.38;5073239;28;20017;-67
2021/06/27 05:08:47;;;;;;;48.25;35.88;;;;;;;17.22;89.09;101481.56;5073135;28;20039;-62
2021/06/27 05:11:12;;;;;;;49.60;35.70;;;;;;;17.20;89.63;101478.94;5073734;28;20035;-63
2021/06/27 05:13:38;;;;;;;46.92;35.25;;;;;;;17.21;89.39;101486.06;5073281;28;20036;-63
2021/06/27 05:16:03;;;;;;;49.08;36.63;;;;;;;17.22;88.05;101489.59;5073050;28;20025;-64
2021/06/27 05:18:29;;;;;;;47.28;34.42;;;;;;;17.29;87.31;101499.28;5073566;28;20036;-62
2021/06/27 05:20:54;;;;;;;47.47;35.85;;;;;;;17.36;87.08;101489.44;5072988;28;20028;-64
2021/06/27 05:23:19;;;;;;;48.42;34.67;;;;;;;17.42;87.81;101495.53;5072949;28;20025;-63
2021/06/27 05:25:45;;;;;;;46.47;34.33;;;;;;;17.54;87.19;101491.81;5073409;28;20033;-62
2021/06/27 05:28:11;;;;;;;46.78;34.80;;;;;;;17.67;86.38;101489.84;5072984;28;20017;-63
2021/06/27 05:30:37;;;;;;;47.42;35.53;;;;;;;17.78;86.39;101482.56;5072912;28;20459;-63
2021/06/27 05:33:03;;;;;;;48.40;34.90;;;;;;;17.85;85.42;101471.75;5072943;28;20578;-64
2021/06/27 05:35:29;;;;;;;46.25;35.17;;;;;;;17.94;85.06;101477.88;5072659;28;20111;-63
2021/06/27 05:37:54;;;;;;;47.38;34.42;;;;;;;18.09;84.56;101467.84;5073208;28;20174;-68
2021/06/27 05:40:20;;;;;;;47.05;35.47;;;;;;;18.20;83.04;101479.25;5072558;28;20384;-62
2021/06/27 05:42:46;;;;;;;46.17;33.80;;;;;;;18.32;82.52;101478.16;5073146;28;20036;-63
2021/06/27 05:45:12;;;;;;;45.97;34.22;;;;;;;18.45;82.09;101485.03;5072987;28;20017;-67
2021/06/27 05:47:37;;;;;;;44.83;33.83;;;;;;;18.58;80.48;101479.44;5072568;28;20027;-68
2021/06/27 05:50:04;;;;;;;44.17;33.75;;;;;;;18.72;79.72;101487.22;5072437;28;20131;-68
2021/06/27 05:52:29;;;;;;;45.42;33.63;;;;;;;18.72;79.94;101482.72;5072682;28;20491;-64
2021/06/27 05:54:54;;;;;;;45.45;33.85;;;;;;;18.75;79.83;101493.38;5072452;28;20036;-65
2021/06/27 05:57:22;;;;;;;43.47;32.30;;;;;;;18.76;79.21;101484.44;5072800;28;20033;-65
2021/06/27 05:59:48;;;;;;;43.78;32.13;;;;;;;18.91;79.48;101494.00;5072865;28;20056;-65
2021/06/27 06:02:13;;;;;;;42.90;31.75;;;;;;;19.04;79.09;101489.28;5072663;28;20020;-64
2021/06/27 06:04:39;;;;;;;43.50;31.55;;;;;;;19.07;77.70;101497.25;5072279;28;20028;-64
2021/06/27 06:07:04;;;;;;;42.15;31.50;;;;;;;19.06;78.08;101492.81;5072707;28;20103;-65
2021/06/27 06:09:29;;;;;;;41.47;30.52;;;;;;;19.04;77.59;101491.97;5072642;28;20464;-65
2021/06/27 06:11:55;;;;;;;43.05;31.13;;;;;;;19.03;77.52;101492.84;5067752;28;20021;-65
2021/06/27 06:14:20;;;;;;;42.30;30.33;;;;;;;19.15;77.28;101492.63;5070989;28;20070;-66
2021/06/27 06:16:46;;;;;;;43.05;30.60;;;;;;;19.21;76.04;101486.25;5070858;28;20159;-62
2021/06/27 06:19:14;;;;;;;43.58;29.98;;;;;;;19.29;76.69;101494.97;5070733;28;20387;-61
2021/06/27 06:21:39;;;;;;;39.28;29.23;;;;;;;19.37;76.32;101486.81;5071043;28;20037;-61
2021/06/27 06:24:05;;;;;;;44.40;29.35;;;;;;;19.41;74.96;101488.50;5070593;28;20020;-60
2021/06/27 06:26:30;;;;;;;41.63;29.80;;;;;;;19.51;75.69;101487.38;5071042;28;20033;-61
2021/06/27 06:28:55;;;;;;;41.13;29.15;;;;;;;19.67;75.55;101484.31;5070474;28;20070;-60
2021/06/27 06:31:21;;;;;;;40.70;29.35;;;;;;;19.76;74.45;101481.44;5071056;28;20025;-62
2021/06/27 06:33:46;;;;;;;40.45;28.67;;;;;;;19.91;72.90;101476.66;5069838;28;20375;-62
2021/06/27 06:36:11;;;;;;;41.53;28.30;;;;;;;19.99;71.98;101485.38;5070583;28;20024;-62
2021/06/27 06:38:37;;;;;;;38.88;27.77;;;;;;;20.13;70.77;101483.22;5070400;28;20038;-61
2021/06/27 06:41:02;;;;;;;38.38;26.67;;;;;;;20.36;71.16;101484.44;5070837;28;20027;-61
2021/06/27 06:43:28;;;;;;;38.42;27.50;;;;;;;20.52;70.20;101496.53;5070441;28;20025;-62
2021/06/27 06:45:53;;;;;;;38.50;27.45;;;;;;;20.72;68.90;101497.81;5070689;28;20028;-62
2021/06/27 06:48:18;;;;;;;38.33;27.13;;;;;;;20.90;67.22;101491.94;5070268;28;20028;-61
2021/06/27 06:50:44;;;;;;;41.33;27.25;;;;;;;21.01;68.29;101493.44;5071143;28;20059;-63
2021/06/27 06:53:10;;;;;;;37.72;27.25;;;;;;;21.19;66.30;101492.03;5074082;28;20039;-61
2021/06/27 06:55:35;;;;;;;37.90;27.08;;;;;;;21.37;66.28;101487.88;5074207;28;20383;-62
2021/06/27 06:58:00;;;;;;;37.30;25.92;;;;;;;21.61;65.62;101483.59;5072398;28;20040;-62
2021/06/27 07:00:26;;;;;;;38.28;27.13;;;;;;;21.69;64.93;101486.03;5073523;28;20427;-62
2021/06/27 07:02:51;;;;;;;38.42;26.80;;;;;;;21.83;64.75;101478.41;5074076;28;20020;-62
2021/06/27 07:05:17;;;;;;;38.17;26.55;;;;;;;21.90;63.91;101474.56;5074563;28;20017;-61
2021/06/27 07:07:45;;;;;;;37.25;26.33;;;;;;;21.94;63.27;101481.63;5074737;28;20059;-62
2021/06/27 07:10:11;;;;;;;37.85;26.27;;;;;;;21.96;64.04;101475.28;5073561;28;20029;-62
2021/06/27 07:12:36;;;;;;;38.53;25.88;;;;;;;21.99;64.23;101477.88;5073248;28;20027;-62
2021/06/27 07:15:02;;;;;;;37.78;25.45;;;;;;;22.05;63.61;101483.06;5074114;28;20036;-61
2021/06/27 07:17:29;;;;;;;37.00;26.02;;;;;;;22.18;63.76;101481.72;5074114;28;20475;-62
2021/06/27 07:19:54;;;;;;;38.45;26.20;;;;;;;22.28;63.19;101491.25;5073813;28;20374;-61
2021/06/27 07:22:20;;;;;;;37.05;25.85;;;;;;;22.47;62.99;101479.88;5074295;28;20099;-61
2021/06/27 07:24:45;;;;;;;35.80;24.63;;;;;;;22.56;61.90;101475.97;5073068;28;20040;-62
2021/06/27 07:27:10;;;;;;;36.45;25.52;;;;;;;22.60;62.03;101470.41;5073467;28;20025;-63
2021/06/27 07:29:36;;;;;;;36.58;25.65;;;;;;;22.68;61.21;101477.31;5073792;28;20025;-62
2021/06/27 07:32:01;;;;;;;36.80;25.20;;;;;;;22.76;61.05;101476.13;5073731;28;20512;-61
2021/06/27 07:34:27;;;;;;;36.47;25.13;;;;;;;22.85;60.91;101474.91;5073348;28;20032;-61
2021/06/27 07:36:53;;;;;;;35.10;24.27;;;;;;;22.90;60.73;101475.59;5073895;28;20024;-60
2021/06/27 07:39:18;;;;;;;35.95;24.63;;;;;;;23.04;60.25;101479.56;5072985;28;20089;-62
2021/06/27 07:41:44;;;;;;;35.75;24.95;;;;;;;23.09;59.03;101478.47;5073559;28;20383;-62
2021/06/27 07:44:09;;;;;;;35.40;25.08;;;;;;;23.13;58.96;101473.88;5073750;28;20028;-60
2021/06/27 07:46:35;;;;;;;36.55;23.90;;;;;;;23.23;59.49;101477.13;5073350;28;20032;-62
2021/06/27 07:49:00;;;;;;;36.42;23.50;;;;;;;23.38;58.27;101471.09;5073099;28;20074;-62
2021/06/27 07:51:25;;;;;;;35.30;24.08;;;;;;;23.49;58.79;101476.09;5073389;28;20383;-66
2021/06/27 07:53:51;;;;;;;34.28;23.73;;;;;;;23.58;58.28;101478.41;5073117;28;20025;-67
2021/06/27 07:56:16;;;;;;;35.22;23.85;;;;;;;23.56;58.67;101485.69;5073588;28;20028;-67
2021/06/27 07:58:42;;;;;;;35.38;24.50;;;;;;;23.54;58.83;101490.25;5072827;28;20074;-67
2021/06/27 08:01:07;;;;;;;35.92;23.58;;;;;;;23.61;58.68;101489.06;5073014;28;20391;-69
2021/06/27 08:03:32;;;;;;;35.85;23.63;;;;;;;23.72;57.83;101483.25;5072998;28;20025;-67
2021/06/27 08:05:58;;;;;;;34.85;23.05;;;;;;;23.87;58.24;101486.28;5072309;28;20040;-69
2021/06/27 08:08:23;;;;;;;35.00;23.10;;;;;;;24.02;57.21;101481.09;5072574;28;20031;-66
2021/06/27 08:10:49;;;;;;;34.60;23.05;;;;;;;24.11;56.42;101485.25;5073693;28;20017;-66
2021/06/27 08:13:14;;;;;;;32.65;22.73;;;;;;;24.24;55.85;101492.84;5074367;28;20418;-67
2021/06/27 08:15:39;;;;;;;34.85;23.55;;;;;;;24.35;56.99;101488.72;5073946;28;20037;-68
2021/06/27 08:18:05;;;;;;;34.90;23.85;;;;;;;24.35;56.71;101498.66;5074183;28;20082;-68
2021/06/27 08:20:31;;;;;;;34.03;23.67;;;;;;;24.24;55.59;101496.41;5068763;28;20033;-69
2021/06/27 08:22:57;;;;;;;37.97;23.08;;;;;;;24.39;56.35;101499.41;5073059;28;20100;-66
2021/06/27 08:25:23;;;;;;;34.20;23.20;;;;;;;24.56;54.71;101498.66;5072727;28;20040;-66
2021/06/27 08:27:49;;;;;;;35.38;23.02;;;;;;;24.68;55.95;101500.84;5069882;28;20031;-67
2021/06/27 08:30:15;;;;;;;34.47;23.63;;;;;;;24.81;55.04;101493.06;5068953;28;20021;-65
2021/06/27 08:32:43;;;;;;;35.50;22.83;;;;;;;24.95;55.02;101497.88;5072761;28;20028;-68
2021/06/27 08:35:17;;;;;;;33.08;21.70;;;;;;;25.10;54.17;101493.56;5071520;28;20494;-62
2021/06/27 08:37:44;;;;;;;32.38;22.08;;;;;;;25.20;54.33;101492.19;5072391;28;20028;-62
2021/06/27 08:40:11;;;;;;;33.40;21.75;;;;;;;25.42;53.43;101483.09;5072252;28;20033;-62
2021/06/27 08:42:37;;;;;;;32.53;20.85;;;;;;;25.62;53.16;101485.69;5071481;28;20068;-64
2021/06/27 08:45:05;;;;;;;33.90;20.73;;;;;;;25.78;51.90;101474.13;5072425;28;20059;-64
2021/06/27 08:47:33;;;;;;;32.63;20.95;;;;;;;26.13;51.86;101479.63;5069998;28;20467;-63
2021/06/27 08:49:58;;;;;;;33.05;20.90;;;;;;;26.30;51.09;101479.63;5071966;28;20190;-64
2021/06/27 08:52:24;;;;;;;32.75;20.38;;;;;;;26.27;51.38;101469.81;5072631;28;20031;-63
2021/06/27 08:54:50;;;;;;;33.05;21.38;;;;;;;26.23;51.21;101465.50;5073305;28;20028;-64
2021/06/27 08:57:17;;;;;;;35.22;23.08;;;;;;;26.23;52.14;101470.06;5073372;28;20036;-63
2021/06/27 08:59:43;;;;;;;33.53;22.48;;;;;;;26.43;50.80;101472.59;5073103;28;20032;-64
2021/06/27 09:02:09;;;;;;;34.80;23.15;;;;;;;26.55;50.56;101462.94;5073499;28;20128;-65
2021/06/27 09:04:40;;;;;;;35.13;24.20;;;;;;;26.72;51.42;101456.66;5071505;28;20066;-64
2021/06/27 09:07:29;;;;;;;35.95;24.90;;;;;;;26.84;51.62;101454.22;5073340;28;20037;-65
2021/06/27 09:09:56;;;;;;;33.90;23.10;;;;;;;26.84;50.67;101451.50;5070222;28;20472;-65
2021/06/27 09:12:21;;;;;;;32.50;21.83;;;;;;;27.01;49.21;101448.75;5073322;28;20036;-64
2021/06/27 09:14:47;;;;;;;32.90;20.58;;;;;;;27.08;47.49;101452.00;5073245;28;20028;-65
2021/06/27 09:17:24;;;;;;;30.77;19.90;;;;;;;27.05;48.24;101446.75;5073107;28;20024;-65
2021/06/27 09:19:53;;;;;;;31.58;20.73;;;;;;;27.11;48.21;101449.97;5069261;28;20495;-62
2021/06/27 09:22:40;;;;;;;31.40;20.65;;;;;;;27.47;48.65;101440.75;5068320;28;20038;-65
2021/06/27 09:25:22;;;;;;;31.02;21.25;;;;;;;27.40;48.38;101438.47;5071292;28;20444;-63
2021/06/27 09:28:04;;;;;;;31.55;21.90;;;;;;;27.48;48.77;101437.06;5071619;28;20032;-63
2021/06/27 09:30:32;;;;;;;31.85;21.65;;;;;;;27.52;49.23;101436.91;5080945;28;20040;-67
2021/06/27 09:33:04;;;;;;;31.17;21.00;;;;;;;27.80;48.70;101437.03;5071867;28;20363;-66
2021/06/27 09:35:44;;;;;;;31.90;21.52;;;;;;;28.00;47.07;101435.00;5071233;28;20111;-65
2021/06/27 09:38:20;;;;;;;31.40;20.33;;;;;;;28.15;46.86;101425.06;5070243;28;20033;-63
2021/06/27 09:40:46;;;;;;;31.15;19.55;;;;;;;28.23;45.46;101432.75;5070858;28;20033;-63
2021/06/27 09:43:12;;;;;;;30.02;19.05;;;;;;;28.50;44.81;101424.75;5071814;28;20023;-64
2021/06/27 09:45:46;;;;;;;29.17;17.33;;;;;;;28.65;44.31;101437.38;5072766;28;20166;-63
2021/06/27 09:48:11;;;;;;;29.98;17.50;;;;;;;28.75;43.00;101423.22;5069352;28;20052;-65
2021/06/27 09:50:37;;;;;;;29.13;17.90;;;;;;;28.76;41.93;101416.78;5072564;28;20446;-65
2021/06/27 09:53:02;;;;;;;28.23;17.42;;;;;;;28.91;43.77;101407.66;5072710;28;20489;-65
2021/06/27 09:55:27;;;;;;;29.15;17.63;;;;;;;29.10;42.67;101410.06;5072575;28;20495;-64
2021/06/27 09:58:28;;;;;;;27.48;16.73;;;;;;;29.14;42.85;101414.34;5072700;28;20024;-64
2021/06/27 10:00:56;;;;;;;27.50;17.42;;;;;;;29.14;43.79;101408.91;4999406;28;20032;-64
2021/06/27 10:03:22;;;;;;;29.50;18.70;;;;;;;29.49;42.64;101403.00;5000211;28;20042;-65
2021/06/27 10:05:48;;;;;;;28.88;17.92;;;;;;;29.63;41.08;101398.47;4985843;28;20038;-65
2021/06/27 10:08:34;;;;;;;29.30;17.50;;;;;;;30.17;41.33;101392.94;4999477;28;20046;-66
2021/06/27 10:11:20;;;;;;;29.10;17.77;;;;;;;30.77;40.75;101385.09;5002451;28;20050;-66
2021/06/27 10:13:51;;;;;;;28.58;17.27;;;;;;;31.42;38.52;101396.75;5002662;28;20030;-69
2021/06/27 10:16:31;;;;;;;28.10;17.35;;;;;;;32.45;37.77;101396.16;5001976;28;20046;-69
2021/06/27 10:18:57;;;;;;;28.70;17.30;;;;;;;33.02;35.50;101383.34;5000747;28;20030;-62
2021/06/27 10:21:24;;;;;;;26.88;16.25;;;;;;;33.51;33.16;101375.69;5001225;28;20041;-69
2021/06/27 10:23:50;;;;;;;25.98;15.15;;;;;;;33.92;31.47;101384.09;5003732;28;20026;-70
2021/06/27 10:26:18;;;;;;;28.50;15.60;;;;;;;33.79;32.13;101379.69;5001644;28;20092;-69
2021/06/27 10:28:44;;;;;;;26.48;16.10;;;;;;;33.34;33.77;101375.22;5004766;28;20428;-67
2021/06/27 10:31:12;;;;;;;26.52;15.10;;;;;;;33.44;34.08;101369.84;5004305;28;20032;-69
2021/06/27 10:33:42;;;;;;;25.92;15.18;;;;;;;33.84;31.92;101368.31;5003643;28;20054;-69
2021/06/27 10:36:11;;;;;;;24.67;14.18;;;;;;;33.57;32.95;101364.19;5074080;28;20082;-69
2021/06/27 10:38:40;;;;;;;25.40;13.82;;;;;;;33.47;32.47;101363.22;5076869;28;20424;-68
2021/06/27 10:41:05;;;;;;;23.58;12.77;;;;;;;33.53;31.81;101362.69;5076845;28;20055;-69
2021/06/27 10:43:55;;;;;;;26.05;13.90;;;;;;;33.79;32.17;101359.63;5076007;28;20420;-68
2021/06/27 10:46:42;;;;;;;25.90;13.98;;;;;;;33.43;33.54;101361.75;5076047;28;20063;-69
2021/06/27 10:49:30;;;;;;;24.02;12.70;;;;;;;33.43;33.33;101359.00;5073960;28;20028;-69
2021/06/27 10:52:04;;;;;;;23.58;12.40;;;;;;;33.65;33.02;101358.03;5072252;28;20032;-66
2021/06/27 10:54:33;;;;;;;23.80;12.80;;;;;;;33.68;32.28;101350.44;5072645;28;20036;-69
2021/06/27 10:57:04;;;;;;;23.15;12.35;;;;;;;33.74;32.88;101361.84;5076127;28;20029;-67
2021/06/27 10:59:38;;;;;;;23.63;12.30;;;;;;;34.13;32.30;101357.53;5076096;28;20082;-69
2021/06/27 11:02:17;;;;;;;22.98;11.05;;;;;;;34.86;30.57;101353.88;5075857;28;20120;-69
2021/06/27 11:04:42;;;;;;;22.25;10.70;;;;;;;35.48;29.70;101345.50;5075911;28;20411;-68
2021/06/27 11:07:08;;;;;;;21.65;10.50;;;;;;;35.46;27.29;101350.25;5075744;28;20116;-68
2021/06/27 11:09:33;;;;;;;23.95;10.52;;;;;;;34.78;27.93;101340.88;5075911;28;20028;-63